Time,TemperatureF,DewpointF,PressureIn,WindDirection,WindDirectionDegrees,WindSpeedMPH,WindSpeedGustMPH,Humidity,HourlyPrecipIn,Conditions,Clouds,dailyrainin,SoftwareType,DateUTC
2013-03-18 17:55:00,40.5,40.0,29.70,SSE,157,2.2,-999.0,98,-99.99,,,0.04,Acu-Link.com,2013-03-18 21:55:00,
2013-03-18 18:10:00,40.8,40.5,29.71,NNE,22,3.7,-999.0,99,-99.99,,,0.06,Acu-Link.com,2013-03-18 22:10:00,
2013-03-18 18:26:00,40.8,40.5,29.74,NNE,22,2.2,-999.0,99,-99.99,,,0.08,Acu-Link.com,2013-03-18 22:26:00,
2013-03-18 18:41:00,40.5,40.0,29.70,SW,225,3.2,-999.0,98,-99.99,,,0.11,Acu-Link.com,2013-03-18 22:41:00,
2013-03-18 18:56:00,40.5,40.2,29.68,NNE,22,3.2,-999.0,99,-99.99,,,0.11,Acu-Link.com,2013-03-18 22:56:00,
2013-03-18 19:41:00,41.0,40.7,29.76,East,90,1.7,-999.0,99,-99.99,,,0.17,Acu-Link.com,2013-03-18 23:41:00,
2013-03-18 19:56:00,41.4,41.1,29.77,South,180,0.0,-999.0,99,-99.99,,,0.20,Acu-Link.com,2013-03-18 23:56:00,
2013-03-18 20:12:00,41.4,41.1,29.74,SSE,157,4.2,-999.0,99,-99.99,,,0.23,Acu-Link.com,2013-03-19 00:12:00,
2013-03-18 20:27:00,41.0,40.7,29.73,South,180,2.2,-999.0,99,-99.99,,,0.25,Acu-Link.com,2013-03-19 00:27:00,
2013-03-18 20:42:00,40.8,40.5,29.67,SSE,157,5.3,-999.0,99,-99.99,,,0.25,Acu-Link.com,2013-03-19 00:42:00,
2013-03-18 20:57:00,40.6,40.3,29.66,SSE,157,2.7,-999.0,99,-99.99,,,0.25,Acu-Link.com,2013-03-19 00:57:00,
2013-03-18 21:12:00,41.0,40.7,29.67,South,180,1.1,-999.0,99,-99.99,,,0.25,Acu-Link.com,2013-03-19 01:12:00,
2013-03-18 21:27:00,41.2,40.9,29.65,ENE,67,2.2,-999.0,99,-99.99,,,0.25,Acu-Link.com,2013-03-19 01:27:00,
2013-03-18 21:57:00,41.7,41.4,29.66,SW,225,0.0,-999.0,99,-99.99,,,0.25,Acu-Link.com,2013-03-19 01:57:00,
2013-03-18 22:13:00,41.7,41.4,29.65,WSW,247,0.0,-999.0,99,-99.99,,,0.25,Acu-Link.com,2013-03-19 02:13:00,
2013-03-18 22:28:00,41.4,41.1,29.65,West,270,1.7,-999.0,99,-99.99,,,0.25,Acu-Link.com,2013-03-19 02:28:00,
2013-03-18 22:43:00,41.2,40.9,29.65,WSW,247,4.7,-999.0,99,-99.99,,,0.25,Acu-Link.com,2013-03-19 02:43:00,
2013-03-18 22:58:00,41.4,41.1,29.66,SSW,202,0.0,-999.0,99,-99.99,,,0.25,Acu-Link.com,2013-03-19 02:58:00,
2013-03-18 23:13:00,41.5,41.2,29.67,SW,225,0.0,-999.0,99,-99.99,,,0.25,Acu-Link.com,2013-03-19 03:13:00,
2013-03-18 23:28:00,41.7,41.4,29.67,SSW,202,0.0,-999.0,99,-99.99,,,0.25,Acu-Link.com,2013-03-19 03:28:00,
2013-03-18 23:43:00,41.5,41.2,29.66,South,180,0.0,-999.0,99,-99.99,,,0.25,Acu-Link.com,2013-03-19 03:43:00,
2013-03-18 23:58:00,41.2,40.9,29.67,SW,225,2.2,-999.0,99,-99.99,,,0.25,Acu-Link.com,2013-03-19 03:58:00,